sensor_id;sensor_type;location;lat;lon;timestamp;temperature;humidity
74384;DHT22;62824;52.994;-3.936;2023-07-13T00:01:28;14.80;99.90
74384;DHT22;62824;52.994;-3.936;2023-07-13T00:03:55;14.80;99.90
74384;DHT22;62824;52.994;-3.936;2023-07-13T00:06:21;14.70;99.90
74384;DHT22;62824;52.994;-3.936;2023-07-13T00:08:47;14.80;99.90
74384;DHT22;62824;52.994;-3.936;2023-07-13T00:11:15;14.80;99.90
74384;DHT22;62824;52.994;-3.936;2023-07-13T00:13:41;14.80;99.90
74384;DHT22;62824;52.994;-3.936;2023-07-13T00:16:09;14.90;99.90
74384;DHT22;62824;52.994;-3.936;2023-07-13T00:18:35;14.90;99.90
74384;DHT22;62824;52.994;-3.936;2023-07-13T00:21:01;14.90;99.90
74384;DHT22;62824;52.994;-3.936;2023-07-13T00:23:35;14.90;99.90
74384;DHT22;62824;52.994;-3.936;2023-07-13T00:26:03;14.90;99.90
74384;DHT22;62824;52.994;-3.936;2023-07-13T00:28:29;14.90;99.90
74384;DHT22;62824;52.994;-3.936;2023-07-13T00:30:55;14.80;99.90
74384;DHT22;62824;52.994;-3.936;2023-07-13T00:33:21;14.80;99.90
74384;DHT22;62824;52.994;-3.936;2023-07-13T00:35:48;14.70;99.90
74384;DHT22;62824;52.994;-3.936;2023-07-13T00:38:14;14.60;99.90
74384;DHT22;62824;52.994;-3.936;2023-07-13T00:40:40;14.60;99.90
74384;DHT22;62824;52.994;-3.936;2023-07-13T00:43:15;14.50;99.90
74384;DHT22;62824;52.994;-3.936;2023-07-13T00:48:17;14.40;99.90
74384;DHT22;62824;52.994;-3.936;2023-07-13T00:50:48;14.40;99.90
74384;DHT22;62824;52.994;-3.936;2023-07-13T00:53:14;14.40;99.90
74384;DHT22;62824;52.994;-3.936;2023-07-13T00:55:40;14.40;99.90
74384;DHT22;62824;52.994;-3.936;2023-07-13T00:58:06;14.40;99.90
74384;DHT22;62824;52.994;-3.936;2023-07-13T01:00:35;14.40;99.90
74384;DHT22;62824;52.994;-3.936;2023-07-13T01:03:02;14.30;99.90
74384;DHT22;62824;52.994;-3.936;2023-07-13T01:05:32;14.30;99.90
74384;DHT22;62824;52.994;-3.936;2023-07-13T01:07:59;14.20;99.90
74384;DHT22;62824;52.994;-3.936;2023-07-13T01:10:26;14.20;99.90
74384;DHT22;62824;52.994;-3.936;2023-07-13T01:12:53;14.20;99.90
74384;DHT22;62824;52.994;-3.936;2023-07-13T01:18:05;14.10;99.90
74384;DHT22;62824;52.994;-3.936;2023-07-13T01:20:32;14.00;99.90
74384;DHT22;62824;52.994;-3.936;2023-07-13T01:23:11;13.90;99.90
74384;DHT22;62824;52.994;-3.936;2023-07-13T01:25:38;13.90;99.90
74384;DHT22;62824;52.994;-3.936;2023-07-13T01:28:08;14.00;99.90
74384;DHT22;62824;52.994;-3.936;2023-07-13T01:30:39;14.00;99.90
74384;DHT22;62824;52.994;-3.936;2023-07-13T01:33:09;14.10;99.90
74384;DHT22;62824;52.994;-3.936;2023-07-13T01:35:35;14.00;99.90
74384;DHT22;62824;52.994;-3.936;2023-07-13T01:38:01;14.00;99.90
74384;DHT22;62824;52.994;-3.936;2023-07-13T01:40:29;13.90;99.90
74384;DHT22;62824;52.994;-3.936;2023-07-13T01:42:57;13.80;99.90
74384;DHT22;62824;52.994;-3.936;2023-07-13T01:45:23;13.70;99.90
74384;DHT22;62824;52.994;-3.936;2023-07-13T01:47:49;13.60;99.90
74384;DHT22;62824;52.994;-3.936;2023-07-13T01:50:15;13.50;99.90
74384;DHT22;62824;52.994;-3.936;2023-07-13T01:52:41;13.40;99.90
74384;DHT22;62824;52.994;-3.936;2023-07-13T01:55:08;13.30;99.90
74384;DHT22;62824;52.994;-3.936;2023-07-13T01:57:33;13.30;99.90
74384;DHT22;62824;52.994;-3.936;2023-07-13T02:00:01;13.30;99.90
74384;DHT22;62824;52.994;-3.936;2023-07-13T02:02:26;13.30;99.90
74384;DHT22;62824;52.994;-3.936;2023-07-13T02:04:52;13.30;99.90
74384;DHT22;62824;52.994;-3.936;2023-07-13T02:07:18;13.30;99.90
74384;DHT22;62824;52.994;-3.936;2023-07-13T02:09:44;13.30;99.90
74384;DHT22;62824;52.994;-3.936;2023-07-13T02:12:10;13.20;99.90
74384;DHT22;62824;52.994;-3.936;2023-07-13T02:14:35;13.20;99.90
74384;DHT22;62824;52.994;-3.936;2023-07-13T02:17:01;13.10;99.90
74384;DHT22;62824;52.994;-3.936;2023-07-13T02:19:27;13.10;99.90
74384;DHT22;62824;52.994;-3.936;2023-07-13T02:21:53;13.20;99.90
74384;DHT22;62824;52.994;-3.936;2023-07-13T02:24:18;13.10;99.90
74384;DHT22;62824;52.994;-3.936;2023-07-13T02:26:47;13.10;99.90
74384;DHT22;62824;52.994;-3.936;2023-07-13T02:29:13;13.00;99.90
74384;DHT22;62824;52.994;-3.936;2023-07-13T02:31:39;13.00;99.90
74384;DHT22;62824;52.994;-3.936;2023-07-13T02:34:05;12.80;99.90
74384;DHT22;62824;52.994;-3.936;2023-07-13T02:36:31;12.70;99.90
74384;DHT22;62824;52.994;-3.936;2023-07-13T02:39:00;12.70;99.90
74384;DHT22;62824;52.994;-3.936;2023-07-13T02:41:26;12.70;99.90
74384;DHT22;62824;52.994;-3.936;2023-07-13T02:43:52;12.70;99.90
74384;DHT22;62824;52.994;-3.936;2023-07-13T02:46:18;12.80;99.90
74384;DHT22;62824;52.994;-3.936;2023-07-13T02:48:45;12.70;99.90
74384;DHT22;62824;52.994;-3.936;2023-07-13T02:51:11;12.70;99.90
74384;DHT22;62824;52.994;-3.936;2023-07-13T02:53:37;12.70;99.90
74384;DHT22;62824;52.994;-3.936;2023-07-13T02:56:04;12.70;99.90
74384;DHT22;62824;52.994;-3.936;2023-07-13T02:58:30;12.60;99.90
74384;DHT22;62824;52.994;-3.936;2023-07-13T03:00:56;12.60;99.90
74384;DHT22;62824;52.994;-3.936;2023-07-13T03:03:23;12.60;99.90
74384;DHT22;62824;52.994;-3.936;2023-07-13T03:05:58;12.60;99.90
74384;DHT22;62824;52.994;-3.936;2023-07-13T03:08:25;12.60;99.90
74384;DHT22;62824;52.994;-3.936;2023-07-13T03:11:11;12.70;99.90
74384;DHT22;62824;52.994;-3.936;2023-07-13T03:13:38;12.70;99.90
74384;DHT22;62824;52.994;-3.936;2023-07-13T03:16:04;12.70;99.90
74384;DHT22;62824;52.994;-3.936;2023-07-13T03:18:31;12.70;99.90
74384;DHT22;62824;52.994;-3.936;2023-07-13T03:20:57;12.70;99.90
74384;DHT22;62824;52.994;-3.936;2023-07-13T03:23:23;12.80;99.90
74384;DHT22;62824;52.994;-3.936;2023-07-13T03:25:49;12.80;99.90
74384;DHT22;62824;52.994;-3.936;2023-07-13T03:28:15;12.80;99.90
74384;DHT22;62824;52.994;-3.936;2023-07-13T03:30:41;12.80;99.90
74384;DHT22;62824;52.994;-3.936;2023-07-13T03:33:07;12.90;99.90
74384;DHT22;62824;52.994;-3.936;2023-07-13T03:35:34;12.90;99.90
74384;DHT22;62824;52.994;-3.936;2023-07-13T03:38:00;12.90;99.90
74384;DHT22;62824;52.994;-3.936;2023-07-13T03:40:27;12.90;99.90
74384;DHT22;62824;52.994;-3.936;2023-07-13T03:42:53;12.90;99.90
74384;DHT22;62824;52.994;-3.936;2023-07-13T03:45:19;12.90;99.90
74384;DHT22;62824;52.994;-3.936;2023-07-13T03:47:45;12.90;99.90
74384;DHT22;62824;52.994;-3.936;2023-07-13T03:50:11;12.90;99.90
74384;DHT22;62824;52.994;-3.936;2023-07-13T03:52:37;12.90;99.90
74384;DHT22;62824;52.994;-3.936;2023-07-13T03:55:03;13.00;99.90
74384;DHT22;62824;52.994;-3.936;2023-07-13T03:57:29;13.00;99.90
74384;DHT22;62824;52.994;-3.936;2023-07-13T03:59:55;13.00;99.90
74384;DHT22;62824;52.994;-3.936;2023-07-13T04:02:20;13.00;99.90
74384;DHT22;62824;52.994;-3.936;2023-07-13T04:04:47;13.00;99.90
74384;DHT22;62824;52.994;-3.936;2023-07-13T04:07:12;13.00;99.90
74384;DHT22;62824;52.994;-3.936;2023-07-13T04:09:38;13.00;99.90
74384;DHT22;62824;52.994;-3.936;2023-07-13T04:12:04;12.90;99.90
74384;DHT22;62824;52.994;-3.936;2023-07-13T04:14:30;12.90;99.90
74384;DHT22;62824;52.994;-3.936;2023-07-13T04:16:56;12.90;99.90
74384;DHT22;62824;52.994;-3.936;2023-07-13T04:19:23;12.90;99.90
74384;DHT22;62824;52.994;-3.936;2023-07-13T04:21:49;12.90;99.90
74384;DHT22;62824;52.994;-3.936;2023-07-13T04:24:14;12.90;99.90
74384;DHT22;62824;52.994;-3.936;2023-07-13T04:26:40;12.90;99.90
74384;DHT22;62824;52.994;-3.936;2023-07-13T04:29:07;12.90;99.90
74384;DHT22;62824;52.994;-3.936;2023-07-13T04:31:33;12.90;99.90
74384;DHT22;62824;52.994;-3.936;2023-07-13T04:33:59;13.00;99.90
74384;DHT22;62824;52.994;-3.936;2023-07-13T04:36:25;13.00;99.90
74384;DHT22;62824;52.994;-3.936;2023-07-13T04:38:54;13.00;99.90
74384;DHT22;62824;52.994;-3.936;2023-07-13T04:41:21;13.00;99.90
74384;DHT22;62824;52.994;-3.936;2023-07-13T04:43:47;13.10;99.90
74384;DHT22;62824;52.994;-3.936;2023-07-13T04:46:16;13.10;99.90
74384;DHT22;62824;52.994;-3.936;2023-07-13T04:48:45;13.10;99.90
74384;DHT22;62824;52.994;-3.936;2023-07-13T04:51:11;13.10;99.90
74384;DHT22;62824;52.994;-3.936;2023-07-13T04:53:37;13.10;99.90
74384;DHT22;62824;52.994;-3.936;2023-07-13T04:56:03;13.20;99.90
74384;DHT22;62824;52.994;-3.936;2023-07-13T04:58:29;13.30;99.90
74384;DHT22;62824;52.994;-3.936;2023-07-13T05:01:02;13.30;99.90
74384;DHT22;62824;52.994;-3.936;2023-07-13T05:03:29;13.30;99.90
74384;DHT22;62824;52.994;-3.936;2023-07-13T05:06:03;13.40;99.90
74384;DHT22;62824;52.994;-3.936;2023-07-13T05:08:30;13.50;99.90
74384;DHT22;62824;52.994;-3.936;2023-07-13T05:10:56;13.40;99.90
74384;DHT22;62824;52.994;-3.936;2023-07-13T05:13:22;13.50;99.90
74384;DHT22;62824;52.994;-3.936;2023-07-13T05:15:58;13.50;99.90
74384;DHT22;62824;52.994;-3.936;2023-07-13T05:18:24;13.60;99.90
74384;DHT22;62824;52.994;-3.936;2023-07-13T05:20:59;13.60;99.90
74384;DHT22;62824;52.994;-3.936;2023-07-13T05:23:25;13.50;99.90
74384;DHT22;62824;52.994;-3.936;2023-07-13T05:25:51;13.50;99.90
74384;DHT22;62824;52.994;-3.936;2023-07-13T05:28:17;13.50;99.90
74384;DHT22;62824;52.994;-3.936;2023-07-13T05:30:47;13.50;99.90
74384;DHT22;62824;52.994;-3.936;2023-07-13T05:33:12;13.60;99.90
74384;DHT22;62824;52.994;-3.936;2023-07-13T05:35:38;13.70;99.90
74384;DHT22;62824;52.994;-3.936;2023-07-13T05:38:04;13.70;99.90
74384;DHT22;62824;52.994;-3.936;2023-07-13T05:40:30;13.70;99.90
74384;DHT22;62824;52.994;-3.936;2023-07-13T05:42:55;13.70;99.90
74384;DHT22;62824;52.994;-3.936;2023-07-13T05:45:21;13.70;99.90
74384;DHT22;62824;52.994;-3.936;2023-07-13T05:47:47;13.70;99.90
74384;DHT22;62824;52.994;-3.936;2023-07-13T05:50:13;13.70;99.90
74384;DHT22;62824;52.994;-3.936;2023-07-13T05:52:38;13.70;99.90
74384;DHT22;62824;52.994;-3.936;2023-07-13T05:55:04;13.70;99.90
74384;DHT22;62824;52.994;-3.936;2023-07-13T05:57:31;13.60;99.90
74384;DHT22;62824;52.994;-3.936;2023-07-13T05:59:57;13.60;99.90
74384;DHT22;62824;52.994;-3.936;2023-07-13T06:02:23;13.60;99.90
74384;DHT22;62824;52.994;-3.936;2023-07-13T06:04:49;13.60;99.90
74384;DHT22;62824;52.994;-3.936;2023-07-13T06:07:15;13.60;99.90
74384;DHT22;62824;52.994;-3.936;2023-07-13T06:09:40;13.70;99.90
74384;DHT22;62824;52.994;-3.936;2023-07-13T06:12:07;13.70;99.90
74384;DHT22;62824;52.994;-3.936;2023-07-13T06:14:34;13.80;99.90
74384;DHT22;62824;52.994;-3.936;2023-07-13T06:16:59;13.80;99.90
74384;DHT22;62824;52.994;-3.936;2023-07-13T06:19:25;13.90;99.90
74384;DHT22;62824;52.994;-3.936;2023-07-13T06:21:51;14.10;99.90
74384;DHT22;62824;52.994;-3.936;2023-07-13T06:24:17;14.20;99.90
74384;DHT22;62824;52.994;-3.936;2023-07-13T06:26:43;14.40;99.90
74384;DHT22;62824;52.994;-3.936;2023-07-13T06:29:09;14.50;99.90
74384;DHT22;62824;52.994;-3.936;2023-07-13T06:31:35;14.60;99.90
74384;DHT22;62824;52.994;-3.936;2023-07-13T06:34:01;14.70;99.90
74384;DHT22;62824;52.994;-3.936;2023-07-13T06:36:26;14.70;99.90
74384;DHT22;62824;52.994;-3.936;2023-07-13T06:38:52;14.60;99.90
74384;DHT22;62824;52.994;-3.936;2023-07-13T06:41:18;14.60;99.90
74384;DHT22;62824;52.994;-3.936;2023-07-13T06:43:44;14.80;99.90
74384;DHT22;62824;52.994;-3.936;2023-07-13T06:46:10;15.10;99.90
74384;DHT22;62824;52.994;-3.936;2023-07-13T06:48:36;15.60;99.90
74384;DHT22;62824;52.994;-3.936;2023-07-13T06:51:02;15.80;99.90
74384;DHT22;62824;52.994;-3.936;2023-07-13T06:53:28;15.80;99.90
74384;DHT22;62824;52.994;-3.936;2023-07-13T06:55:54;15.90;99.90
74384;DHT22;62824;52.994;-3.936;2023-07-13T06:58:21;15.80;99.90
74384;DHT22;62824;52.994;-3.936;2023-07-13T07:00:50;15.70;99.90
74384;DHT22;62824;52.994;-3.936;2023-07-13T07:03:16;15.70;99.90
74384;DHT22;62824;52.994;-3.936;2023-07-13T07:05:42;15.70;99.90
74384;DHT22;62824;52.994;-3.936;2023-07-13T07:08:11;15.70;99.90
74384;DHT22;62824;52.994;-3.936;2023-07-13T07:10:37;15.90;99.90
74384;DHT22;62824;52.994;-3.936;2023-07-13T07:13:03;15.90;99.90
74384;DHT22;62824;52.994;-3.936;2023-07-13T07:15:29;15.90;99.90
74384;DHT22;62824;52.994;-3.936;2023-07-13T07:17:55;15.90;99.90
74384;DHT22;62824;52.994;-3.936;2023-07-13T07:20:21;15.90;99.90
74384;DHT22;62824;52.994;-3.936;2023-07-13T07:22:47;16.00;99.90
74384;DHT22;62824;52.994;-3.936;2023-07-13T07:25:13;16.00;99.90
74384;DHT22;62824;52.994;-3.936;2023-07-13T07:27:39;16.00;99.90
74384;DHT22;62824;52.994;-3.936;2023-07-13T07:30:05;16.00;99.90
74384;DHT22;62824;52.994;-3.936;2023-07-13T07:32:32;15.90;99.90
74384;DHT22;62824;52.994;-3.936;2023-07-13T07:34:58;16.20;99.90
74384;DHT22;62824;52.994;-3.936;2023-07-13T07:37:24;16.30;99.90
74384;DHT22;62824;52.994;-3.936;2023-07-13T07:39:50;16.40;99.90
74384;DHT22;62824;52.994;-3.936;2023-07-13T07:42:16;16.40;99.90
74384;DHT22;62824;52.994;-3.936;2023-07-13T07:44:42;16.50;99.90
74384;DHT22;62824;52.994;-3.936;2023-07-13T07:47:08;16.60;99.90
74384;DHT22;62824;52.994;-3.936;2023-07-13T07:49:35;16.60;99.90
74384;DHT22;62824;52.994;-3.936;2023-07-13T07:52:01;16.70;98.90
74384;DHT22;62824;52.994;-3.936;2023-07-13T07:54:27;16.80;93.20
74384;DHT22;62824;52.994;-3.936;2023-07-13T07:56:53;16.80;92.30
74384;DHT22;62824;52.994;-3.936;2023-07-13T07:59:19;16.90;90.90
74384;DHT22;62824;52.994;-3.936;2023-07-13T08:01:45;17.00;92.40
74384;DHT22;62824;52.994;-3.936;2023-07-13T08:04:12;17.10;95.40
74384;DHT22;62824;52.994;-3.936;2023-07-13T08:06:38;17.00;97.10
74384;DHT22;62824;52.994;-3.936;2023-07-13T08:09:03;17.00;99.00
74384;DHT22;62824;52.994;-3.936;2023-07-13T08:11:30;16.90;99.70
74384;DHT22;62824;52.994;-3.936;2023-07-13T08:13:55;16.90;97.70
74384;DHT22;62824;52.994;-3.936;2023-07-13T08:16:22;16.90;99.80
74384;DHT22;62824;52.994;-3.936;2023-07-13T08:18:49;16.80;99.70
74384;DHT22;62824;52.994;-3.936;2023-07-13T08:21:14;16.70;99.80
74384;DHT22;62824;52.994;-3.936;2023-07-13T08:23:40;16.70;99.90
74384;DHT22;62824;52.994;-3.936;2023-07-13T08:26:06;16.70;99.90
74384;DHT22;62824;52.994;-3.936;2023-07-13T08:28:33;16.80;99.90
74384;DHT22;62824;52.994;-3.936;2023-07-13T08:31:07;17.00;99.90
74384;DHT22;62824;52.994;-3.936;2023-07-13T08:33:35;17.20;99.90
74384;DHT22;62824;52.994;-3.936;2023-07-13T08:36:01;17.30;99.90
74384;DHT22;62824;52.994;-3.936;2023-07-13T08:38:27;17.20;97.50
74384;DHT22;62824;52.994;-3.936;2023-07-13T08:40:55;17.20;96.70
74384;DHT22;62824;52.994;-3.936;2023-07-13T08:43:29;17.10;94.50
74384;DHT22;62824;52.994;-3.936;2023-07-13T08:46:26;17.10;95.40
74384;DHT22;62824;52.994;-3.936;2023-07-13T08:49:16;17.20;95.70
74384;DHT22;62824;52.994;-3.936;2023-07-13T08:56:41;17.10;88.10
74384;DHT22;62824;52.994;-3.936;2023-07-13T08:59:13;17.20;90.00
74384;DHT22;62824;52.994;-3.936;2023-07-13T09:02:09;17.00;83.80
74384;DHT22;62824;52.994;-3.936;2023-07-13T09:04:50;17.00;90.90
74384;DHT22;62824;52.994;-3.936;2023-07-13T09:10:12;17.20;92.10
74384;DHT22;62824;52.994;-3.936;2023-07-13T09:12:48;17.20;92.30
74384;DHT22;62824;52.994;-3.936;2023-07-13T09:17:50;17.30;84.20
74384;DHT22;62824;52.994;-3.936;2023-07-13T09:20:36;17.40;84.00
74384;DHT22;62824;52.994;-3.936;2023-07-13T09:23:09;17.40;81.20
74384;DHT22;62824;52.994;-3.936;2023-07-13T09:25:38;17.50;85.40
74384;DHT22;62824;52.994;-3.936;2023-07-13T09:28:12;17.50;84.70
74384;DHT22;62824;52.994;-3.936;2023-07-13T09:30:46;17.50;91.30
74384;DHT22;62824;52.994;-3.936;2023-07-13T09:33:17;17.50;87.80
74384;DHT22;62824;52.994;-3.936;2023-07-13T09:35:42;17.50;69.00
74384;DHT22;62824;52.994;-3.936;2023-07-13T09:38:15;17.60;72.30
74384;DHT22;62824;52.994;-3.936;2023-07-13T09:43:20;17.70;73.00
74384;DHT22;62824;52.994;-3.936;2023-07-13T09:45:47;17.80;61.40
74384;DHT22;62824;52.994;-3.936;2023-07-13T09:48:15;18.00;65.20
74384;DHT22;62824;52.994;-3.936;2023-07-13T09:50:42;18.00;59.60
74384;DHT22;62824;52.994;-3.936;2023-07-13T09:53:15;18.20;58.10
74384;DHT22;62824;52.994;-3.936;2023-07-13T09:55:43;18.20;62.70
74384;DHT22;62824;52.994;-3.936;2023-07-13T09:58:27;18.00;49.80
74384;DHT22;62824;52.994;-3.936;2023-07-13T10:01:00;18.20;52.30
74384;DHT22;62824;52.994;-3.936;2023-07-13T10:03:34;18.30;49.30
74384;DHT22;62824;52.994;-3.936;2023-07-13T10:06:25;18.30;53.30
74384;DHT22;62824;52.994;-3.936;2023-07-13T10:08:56;18.20;50.80
74384;DHT22;62824;52.994;-3.936;2023-07-13T10:11:29;18.40;51.10
74384;DHT22;62824;52.994;-3.936;2023-07-13T10:13:56;18.60;49.00
74384;DHT22;62824;52.994;-3.936;2023-07-13T10:16:28;18.60;55.90
74384;DHT22;62824;52.994;-3.936;2023-07-13T10:19:00;18.50;56.80
74384;DHT22;62824;52.994;-3.936;2023-07-13T10:21:35;18.70;53.90
74384;DHT22;62824;52.994;-3.936;2023-07-13T10:24:24;18.60;52.20
74384;DHT22;62824;52.994;-3.936;2023-07-13T10:27:15;18.70;61.10
74384;DHT22;62824;52.994;-3.936;2023-07-13T10:30:09;18.90;55.60
74384;DHT22;62824;52.994;-3.936;2023-07-13T10:32:37;18.90;51.80
74384;DHT22;62824;52.994;-3.936;2023-07-13T10:35:04;19.00;57.20
74384;DHT22;62824;52.994;-3.936;2023-07-13T10:37:39;19.00;52.60
74384;DHT22;62824;52.994;-3.936;2023-07-13T10:40:13;19.30;51.70
74384;DHT22;62824;52.994;-3.936;2023-07-13T10:42:44;19.20;46.30
74384;DHT22;62824;52.994;-3.936;2023-07-13T10:45:21;19.00;51.00
74384;DHT22;62824;52.994;-3.936;2023-07-13T10:47:49;19.10;53.70
74384;DHT22;62824;52.994;-3.936;2023-07-13T10:50:20;19.00;47.20
74384;DHT22;62824;52.994;-3.936;2023-07-13T10:52:52;18.90;50.10
74384;DHT22;62824;52.994;-3.936;2023-07-13T11:01:07;18.70;56.20
74384;DHT22;62824;52.994;-3.936;2023-07-13T11:03:51;18.80;61.10
74384;DHT22;62824;52.994;-3.936;2023-07-13T11:08:51;18.50;63.40
74384;DHT22;62824;52.994;-3.936;2023-07-13T11:22:16;18.60;62.30
74384;DHT22;62824;52.994;-3.936;2023-07-13T11:24:56;18.60;66.60
74384;DHT22;62824;52.994;-3.936;2023-07-13T11:27:43;18.70;68.70
74384;DHT22;62824;52.994;-3.936;2023-07-13T11:33:12;19.20;59.90
74384;DHT22;62824;52.994;-3.936;2023-07-13T11:40:54;19.40;51.20
74384;DHT22;62824;52.994;-3.936;2023-07-13T11:43:20;19.30;50.50
74384;DHT22;62824;52.994;-3.936;2023-07-13T11:45:50;19.40;53.10
74384;DHT22;62824;52.994;-3.936;2023-07-13T11:51:03;19.80;43.80
74384;DHT22;62824;52.994;-3.936;2023-07-13T11:53:46;20.30;41.40
74384;DHT22;62824;52.994;-3.936;2023-07-13T11:56:13;20.30;35.70
74384;DHT22;62824;52.994;-3.936;2023-07-13T11:58:39;20.00;40.50
74384;DHT22;62824;52.994;-3.936;2023-07-13T12:01:05;19.70;46.20
74384;DHT22;62824;52.994;-3.936;2023-07-13T12:03:33;19.80;47.20
74384;DHT22;62824;52.994;-3.936;2023-07-13T12:06:02;19.70;48.60
74384;DHT22;62824;52.994;-3.936;2023-07-13T12:08:29;19.90;41.50
74384;DHT22;62824;52.994;-3.936;2023-07-13T12:11:09;20.10;41.20
74384;DHT22;62824;52.994;-3.936;2023-07-13T12:13:41;20.10;39.90
74384;DHT22;62824;52.994;-3.936;2023-07-13T12:16:29;19.80;44.10
74384;DHT22;62824;52.994;-3.936;2023-07-13T12:18:56;19.50;46.90
74384;DHT22;62824;52.994;-3.936;2023-07-13T12:21:33;19.40;50.90
74384;DHT22;62824;52.994;-3.936;2023-07-13T12:24:00;19.60;52.20
74384;DHT22;62824;52.994;-3.936;2023-07-13T12:26:29;19.90;53.40
74384;DHT22;62824;52.994;-3.936;2023-07-13T12:28:57;19.90;54.20
74384;DHT22;62824;52.994;-3.936;2023-07-13T12:34:00;19.60;47.20
74384;DHT22;62824;52.994;-3.936;2023-07-13T12:36:30;19.30;48.90
74384;DHT22;62824;52.994;-3.936;2023-07-13T12:39:00;19.40;52.60
74384;DHT22;62824;52.994;-3.936;2023-07-13T12:41:30;19.40;60.70
74384;DHT22;62824;52.994;-3.936;2023-07-13T12:43:56;19.50;58.40
74384;DHT22;62824;52.994;-3.936;2023-07-13T12:46:24;19.40;60.40
74384;DHT22;62824;52.994;-3.936;2023-07-13T12:48:54;19.50;57.80
74384;DHT22;62824;52.994;-3.936;2023-07-13T12:51:25;19.20;61.40
74384;DHT22;62824;52.994;-3.936;2023-07-13T12:56:39;19.30;66.30
74384;DHT22;62824;52.994;-3.936;2023-07-13T12:59:05;19.40;66.70
74384;DHT22;62824;52.994;-3.936;2023-07-13T13:01:34;19.20;66.90
74384;DHT22;62824;52.994;-3.936;2023-07-13T13:04:03;19.10;73.50
74384;DHT22;62824;52.994;-3.936;2023-07-13T13:06:32;19.00;73.90
74384;DHT22;62824;52.994;-3.936;2023-07-13T13:08:59;19.00;74.10
74384;DHT22;62824;52.994;-3.936;2023-07-13T13:11:27;19.10;72.50
74384;DHT22;62824;52.994;-3.936;2023-07-13T13:13:53;19.00;67.10
74384;DHT22;62824;52.994;-3.936;2023-07-13T13:18:56;19.80;49.80
74384;DHT22;62824;52.994;-3.936;2023-07-13T13:21:25;19.90;38.20
74384;DHT22;62824;52.994;-3.936;2023-07-13T13:23:52;19.90;34.00
74384;DHT22;62824;52.994;-3.936;2023-07-13T13:26:23;20.30;34.40
74384;DHT22;62824;52.994;-3.936;2023-07-13T13:28:49;20.40;34.50
74384;DHT22;62824;52.994;-3.936;2023-07-13T13:31:15;20.70;28.60
74384;DHT22;62824;52.994;-3.936;2023-07-13T13:33:43;20.80;28.50
74384;DHT22;62824;52.994;-3.936;2023-07-13T13:36:22;20.80;27.50
74384;DHT22;62824;52.994;-3.936;2023-07-13T13:38:50;20.90;27.50
74384;DHT22;62824;52.994;-3.936;2023-07-13T13:41:16;20.80;29.00
74384;DHT22;62824;52.994;-3.936;2023-07-13T13:43:43;20.90;24.30
74384;DHT22;62824;52.994;-3.936;2023-07-13T13:46:18;21.20;23.60
74384;DHT22;62824;52.994;-3.936;2023-07-13T13:48:45;21.10;25.50
74384;DHT22;62824;52.994;-3.936;2023-07-13T13:51:19;21.40;26.30
74384;DHT22;62824;52.994;-3.936;2023-07-13T13:53:47;21.50;23.70
74384;DHT22;62824;52.994;-3.936;2023-07-13T13:56:14;21.20;28.90
74384;DHT22;62824;52.994;-3.936;2023-07-13T13:58:40;20.90;28.80
74384;DHT22;62824;52.994;-3.936;2023-07-13T14:01:24;20.60;30.50
74384;DHT22;62824;52.994;-3.936;2023-07-13T14:03:51;20.40;35.80
74384;DHT22;62824;52.994;-3.936;2023-07-13T14:06:19;20.20;36.60
74384;DHT22;62824;52.994;-3.936;2023-07-13T14:08:45;20.10;34.30
74384;DHT22;62824;52.994;-3.936;2023-07-13T14:11:18;20.20;30.20
74384;DHT22;62824;52.994;-3.936;2023-07-13T14:13:48;20.10;27.50
74384;DHT22;62824;52.994;-3.936;2023-07-13T14:16:21;19.80;25.10
74384;DHT22;62824;52.994;-3.936;2023-07-13T14:18:49;19.80;33.60
74384;DHT22;62824;52.994;-3.936;2023-07-13T14:21:20;19.70;33.40
74384;DHT22;62824;52.994;-3.936;2023-07-13T14:23:48;19.90;33.50
74384;DHT22;62824;52.994;-3.936;2023-07-13T14:26:25;20.50;22.00
74384;DHT22;62824;52.994;-3.936;2023-07-13T14:28:54;20.90;22.80
74384;DHT22;62824;52.994;-3.936;2023-07-13T14:31:21;21.10;20.00
74384;DHT22;62824;52.994;-3.936;2023-07-13T14:33:47;21.30;18.50
74384;DHT22;62824;52.994;-3.936;2023-07-13T14:36:32;21.00;16.20
74384;DHT22;62824;52.994;-3.936;2023-07-13T14:38:59;21.00;21.30
74384;DHT22;62824;52.994;-3.936;2023-07-13T14:41:26;21.50;19.30
74384;DHT22;62824;52.994;-3.936;2023-07-13T14:43:52;21.40;18.70
74384;DHT22;62824;52.994;-3.936;2023-07-13T14:46:32;21.00;19.20
74384;DHT22;62824;52.994;-3.936;2023-07-13T14:49:12;20.70;21.50
74384;DHT22;62824;52.994;-3.936;2023-07-13T14:51:39;20.60;23.90
74384;DHT22;62824;52.994;-3.936;2023-07-13T14:54:08;20.70;22.10
74384;DHT22;62824;52.994;-3.936;2023-07-13T14:56:37;20.80;22.10
74384;DHT22;62824;52.994;-3.936;2023-07-13T14:59:03;20.60;22.50
74384;DHT22;62824;52.994;-3.936;2023-07-13T15:01:30;20.50;21.80
74384;DHT22;62824;52.994;-3.936;2023-07-13T15:04:01;20.20;22.60
74384;DHT22;62824;52.994;-3.936;2023-07-13T15:06:27;20.10;26.40
74384;DHT22;62824;52.994;-3.936;2023-07-13T15:08:54;20.10;26.00
74384;DHT22;62824;52.994;-3.936;2023-07-13T15:11:21;20.30;27.70
74384;DHT22;62824;52.994;-3.936;2023-07-13T15:13:47;20.40;27.10
74384;DHT22;62824;52.994;-3.936;2023-07-13T15:16:22;20.30;25.00
74384;DHT22;62824;52.994;-3.936;2023-07-13T15:18:49;20.40;26.10
74384;DHT22;62824;52.994;-3.936;2023-07-13T15:21:23;20.60;26.80
74384;DHT22;62824;52.994;-3.936;2023-07-13T15:23:50;20.80;25.50
74384;DHT22;62824;52.994;-3.936;2023-07-13T15:26:18;20.70;22.90
74384;DHT22;62824;52.994;-3.936;2023-07-13T15:28:45;20.80;23.40
74384;DHT22;62824;52.994;-3.936;2023-07-13T15:31:23;20.80;22.40
74384;DHT22;62824;52.994;-3.936;2023-07-13T15:33:51;20.70;20.00
74384;DHT22;62824;52.994;-3.936;2023-07-13T15:36:18;20.40;19.90
74384;DHT22;62824;52.994;-3.936;2023-07-13T15:38:45;20.50;20.40
74384;DHT22;62824;52.994;-3.936;2023-07-13T15:41:20;20.70;19.20
74384;DHT22;62824;52.994;-3.936;2023-07-13T15:43:49;20.80;21.40
74384;DHT22;62824;52.994;-3.936;2023-07-13T15:46:18;20.90;21.60
74384;DHT22;62824;52.994;-3.936;2023-07-13T15:48:45;20.80;22.70
74384;DHT22;62824;52.994;-3.936;2023-07-13T15:51:18;20.80;23.20
74384;DHT22;62824;52.994;-3.936;2023-07-13T15:53:45;20.80;23.80
74384;DHT22;62824;52.994;-3.936;2023-07-13T15:56:25;20.90;20.90
74384;DHT22;62824;52.994;-3.936;2023-07-13T15:58:52;20.80;22.40
74384;DHT22;62824;52.994;-3.936;2023-07-13T16:01:18;20.70;23.10
74384;DHT22;62824;52.994;-3.936;2023-07-13T16:03:45;20.70;21.90
74384;DHT22;62824;52.994;-3.936;2023-07-13T16:06:17;20.70;26.80
74384;DHT22;62824;52.994;-3.936;2023-07-13T16:08:44;20.70;25.20
74384;DHT22;62824;52.994;-3.936;2023-07-13T16:11:36;20.80;25.30
74384;DHT22;62824;52.994;-3.936;2023-07-13T16:14:02;20.80;26.90
74384;DHT22;62824;52.994;-3.936;2023-07-13T16:16:31;20.80;25.80
74384;DHT22;62824;52.994;-3.936;2023-07-13T16:18:59;20.90;27.50
74384;DHT22;62824;52.994;-3.936;2023-07-13T16:21:28;20.80;27.60